^^
B2 Weather Station Historical Data
Daily Summary for June 6, 2019 Units:  English    Metric   Both
Daily Weekly Monthly Yearly Custom
  High: Low: Average:
Temperature: 85.9 °F 58.5 °F 69.9 °F
Dew Point: 72.8 °F 57.1 °F 64.1 °F
Humidity: 95% 60% 83%
Wind Speed: 13.8mph 0mph 4.9mph
Wind Gust: 10mph - -
Wind- - ENE
Pressure: 29.89 in 29.78 in -
Precipitation: 0 in    
Historical Graphs
 
 
Tabular Data for June 6, 2019
Time Temperature Dew Point Pressure Wind Wind Speed Wind Gust Humidity Rainfall Rate (Hourly) solar
00:04 64.3 °F 61.9 °F 29.80 in Calm     92% 0 in 0.00 W/m2
00:09 64 °F 61.6 °F 29.79 in Calm     92% 0 in 0.00 W/m2
00:14 63.8 °F 61.4 °F 29.79 in Calm     92% 0 in 0.00 W/m2
00:19 63.7 °F 61.3 °F 29.79 in Calm     92% 0 in 0.00 W/m2
00:24 63.5 °F 61.1 °F 29.79 in Calm     92% 0 in 0.00 W/m2
00:29 63.4 °F 61.3 °F 29.79 in Calm     93% 0 in 0.00 W/m2
00:34 63.3 °F 61.2 °F 29.79 in Calm     93% 0 in 0.00 W/m2
00:39 63.2 °F 61.1 °F 29.80 in Calm     93% 0 in 0.00 W/m2
00:44 63.1 °F 61 °F 29.80 in Calm     93% 0 in 0.00 W/m2
00:49 63 °F 60.9 °F 29.80 in Calm     93% 0 in 0.00 W/m2
00:54 63 °F 60.9 °F 29.80 in Calm     93% 0 in 0.00 W/m2
00:59 62.9 °F 60.8 °F 29.80 in Calm     93% 0 in 0.00 W/m2
01:04 62.9 °F 60.8 °F 29.80 in Calm     93% 0 in 0.00 W/m2
01:09 62.7 °F 60.6 °F 29.80 in Calm     93% 0 in 0.00 W/m2
01:14 62.6 °F 60.8 °F 29.80 in Calm     94% 0 in 0.00 W/m2
01:19 62.6 °F 60.8 °F 29.80 in Calm     94% 0 in 0.00 W/m2
01:24 62.5 °F 60.7 °F 29.80 in Calm     94% 0 in 0.00 W/m2
01:29 62.4 °F 60.7 °F 29.80 in Calm     94% 0 in 0.00 W/m2
01:34 62.3 °F 60.6 °F 29.80 in Calm     94% 0 in 0.00 W/m2
01:39 62.2 °F 60.5 °F 29.80 in Calm     94% 0 in 0.00 W/m2
01:44 62.1 °F 60.4 °F 29.80 in Calm     94% 0 in 0.00 W/m2
01:49 62 °F 60.3 °F 29.80 in Calm     94% 0 in 0.00 W/m2
01:54 62 °F 60.3 °F 29.80 in Calm     94% 0 in 0.00 W/m2
01:59 61.9 °F 60.2 °F 29.80 in Calm     94% 0 in 0.00 W/m2
02:04 61.9 °F 60.2 °F 29.79 in Calm     94% 0 in 0.00 W/m2
02:09 61.8 °F 60.1 °F 29.79 in Calm     94% 0 in 0.00 W/m2
02:14 61.8 °F 60.1 °F 29.79 in Calm     94% 0 in 0.00 W/m2
02:19 61.8 °F 60.1 °F 29.79 in Calm     94% 0 in 0.00 W/m2
02:24 61.7 °F 60 °F 29.79 in Calm     94% 0 in 0.00 W/m2
02:29 61.7 °F 60 °F 29.79 in Calm     94% 0 in 0.00 W/m2
02:34 61.7 °F 60 °F 29.79 in Calm     94% 0 in 0.00 W/m2
02:39 61.6 °F 59.9 °F 29.78 in Calm     94% 0 in 0.00 W/m2
02:44 61.5 °F 59.8 °F 29.79 in NNE 5.8 mph 3.3 mph 94% 0 in 0.00 W/m2
02:49 61.4 °F 60 °F 29.79 in NE 5 mph 5 mph 95% 0 in 0.00 W/m2
02:54 61.4 °F 59.7 °F 29.79 in North 5.8 mph 3.7 mph 94% 0 in 0.00 W/m2
02:59 61.2 °F 59.5 °F 29.79 in NNE 5.8 mph 2.6 mph 94% 0 in 0.00 W/m2
03:04 61.1 °F 59.4 °F 29.79 in NNE 4.6 mph 3.2 mph 94% 0 in 0.00 W/m2
03:09 61.1 °F 59.7 °F 29.79 in NNE 5 mph 1.7 mph 95% 0 in 0.00 W/m2
03:14 60.9 °F 59.5 °F 29.79 in North 3.5 mph 3 mph 95% 0 in 0.00 W/m2
03:19 60.6 °F 58.9 °F 29.79 in NNE 4.6 mph 2.7 mph 94% 0 in 0.00 W/m2
03:24 60.4 °F 59 °F 29.80 in NNE 1 mph 0.4 mph 95% 0 in 0.00 W/m2
03:29 60.2 °F 58.8 °F 29.80 in Calm     95% 0 in 0.00 W/m2
03:34 60 °F 58.3 °F 29.80 in NE 1.2 mph   94% 0 in 0.00 W/m2
03:39 59.8 °F 58.1 °F 29.80 in NE 1.2 mph 0.3 mph 94% 0 in 0.00 W/m2
03:44 59.8 °F 58.4 °F 29.80 in ENE 1.2 mph 0.7 mph 95% 0 in 0.00 W/m2
03:49 59.7 °F 58.3 °F 29.80 in ENE 2.3 mph 0.6 mph 95% 0 in 0.00 W/m2
03:54 59.6 °F 58.2 °F 29.80 in ENE 2.3 mph 0.2 mph 95% 0 in 0.00 W/m2
03:59 59.5 °F 58.1 °F 29.80 in ENE 1 mph 0.1 mph 95% 0 in 0.00 W/m2
04:04 59.3 °F 57.9 °F 29.80 in Calm     95% 0 in 0.00 W/m2
04:09 59.2 °F 57.8 °F 29.80 in ENE 3.5 mph 0.8 mph 95% 0 in 0.00 W/m2
04:14 59 °F 57.6 °F 29.80 in ENE 1.2 mph 0.2 mph 95% 0 in 0.00 W/m2
04:19 59 °F 57.6 °F 29.81 in NE 1.2 mph   95% 0 in 0.00 W/m2
04:24 58.9 °F 57.5 °F 29.81 in NE 2.3 mph   95% 0 in 0.00 W/m2
04:29 58.8 °F 57.4 °F 29.81 in NE 2.3 mph 0.4 mph 95% 0 in 0.00 W/m2
04:34 58.7 °F 57.3 °F 29.81 in NE 2.3 mph 0.2 mph 95% 0 in 0.00 W/m2
04:39 58.7 °F 57.3 °F 29.81 in NE 3 mph 1 mph 95% 0 in 0.00 W/m2
04:44 58.7 °F 57.3 °F 29.81 in NE 3 mph 1.1 mph 95% 0 in 0.00 W/m2
04:49 58.6 °F 57.2 °F 29.81 in NNE 3.5 mph 1.4 mph 95% 0 in 0.00 W/m2
04:54 58.6 °F 57.2 °F 29.81 in Calm     95% 0 in 0.00 W/m2
04:59 58.5 °F 57.1 °F 29.81 in NE 3 mph 0.4 mph 95% 0 in 0.00 W/m2
05:04 58.5 °F 57.1 °F 29.81 in NE 3.5 mph 1.3 mph 95% 0 in 0.00 W/m2
05:09 58.5 °F 57.1 °F 29.81 in NE 5 mph 2.6 mph 95% 0 in 0.00 W/m2
05:14 58.6 °F 57.2 °F 29.82 in North 4.6 mph 2.4 mph 95% 0 in 0.00 W/m2
05:19 58.7 °F 57.3 °F 29.81 in NNE 4.6 mph 1.7 mph 95% 0 in 0.00 W/m2
05:24 58.7 °F 57.3 °F 29.81 in NE 5 mph 3.4 mph 95% 0 in 0.00 W/m2
05:29 58.8 °F 57.4 °F 29.82 in NE 5.8 mph 2.5 mph 95% 0 in 5.00 W/m2
05:34 58.8 °F 57.4 °F 29.82 in NE 5.8 mph 3.3 mph 95% 0 in 7.00 W/m2
05:39 58.8 °F 57.4 °F 29.82 in NE 3.5 mph 2.2 mph 95% 0 in 11.00 W/m2
05:44 58.8 °F 57.4 °F 29.82 in NNE 5.8 mph 3.1 mph 95% 0 in 12.00 W/m2
05:49 58.7 °F 57.3 °F 29.82 in NNE 3.5 mph 1.8 mph 95% 0 in 14.00 W/m2
05:54 58.8 °F 57.4 °F 29.82 in NNE 3.5 mph 2.3 mph 95% 0 in 19.00 W/m2
05:59 58.8 °F 57.4 °F 29.82 in NE 4.6 mph 0.8 mph 95% 0 in 25.00 W/m2
06:04 58.9 °F 57.5 °F 29.82 in NNE 3.5 mph 2.8 mph 95% 0 in 26.00 W/m2
06:09 59 °F 57.6 °F 29.83 in NE 2.3 mph 0.3 mph 95% 0 in 28.00 W/m2
06:14 59 °F 57.6 °F 29.83 in NE 2.3 mph 0.7 mph 95% 0 in 32.00 W/m2
06:19 59.2 °F 57.8 °F 29.83 in ENE 2.3 mph 1.5 mph 95% 0 in 33.00 W/m2
06:24 59.3 °F 57.9 °F 29.83 in East 2.3 mph 1.4 mph 95% 0 in 35.00 W/m2
06:29 59.4 °F 58 °F 29.84 in NE 5.8 mph 3.5 mph 95% 0 in 54.00 W/m2
06:34 59.4 °F 58 °F 29.84 in NE 3.5 mph 1.7 mph 95% 0 in 60.00 W/m2
06:39 59.5 °F 58.1 °F 29.84 in ENE 8.1 mph 2.7 mph 95% 0 in 62.00 W/m2
06:44 59.5 °F 58.1 °F 29.84 in NE 4 mph 4.3 mph 95% 0 in 56.00 W/m2
06:49 59.5 °F 58.1 °F 29.84 in ENE 3.5 mph 1.6 mph 95% 0 in 56.00 W/m2
06:54 59.6 °F 58.2 °F 29.85 in ENE 3.5 mph 1.4 mph 95% 0 in 54.00 W/m2
06:59 59.7 °F 58.3 °F 29.85 in NE 3.5 mph 1.4 mph 95% 0 in 44.00 W/m2
07:04 59.8 °F 58.4 °F 29.85 in ENE 2.3 mph 0.1 mph 95% 0 in 47.00 W/m2
07:09 59.9 °F 58.5 °F 29.85 in Calm     95% 0 in 53.00 W/m2
07:14 60 °F 58.6 °F 29.85 in ENE 1.2 mph 0.3 mph 95% 0 in 51.00 W/m2
07:19 59.9 °F 58.5 °F 29.85 in Calm     95% 0 in 67.00 W/m2
07:24 60 °F 58.6 °F 29.85 in Calm     95% 0 in 58.00 W/m2
07:29 60.1 °F 58.7 °F 29.85 in Calm     95% 0 in 65.00 W/m2
07:34 60.3 °F 58.9 °F 29.85 in Calm     95% 0 in 86.00 W/m2
07:39 60.4 °F 59 °F 29.85 in Calm     95% 0 in 120.00 W/m2
07:44 60.5 °F 59.1 °F 29.85 in Calm     95% 0 in 97.00 W/m2
07:49 60.6 °F 59.2 °F 29.86 in Calm     95% 0 in 105.00 W/m2
07:54 60.7 °F 59.3 °F 29.86 in Calm     95% 0 in 91.00 W/m2
07:59 60.9 °F 59.5 °F 29.86 in Calm     95% 0 in 102.00 W/m2
08:04 61.1 °F 59.7 °F 29.86 in Calm     95% 0 in 134.00 W/m2
08:09 61.5 °F 60.1 °F 29.86 in ENE 3.5 mph 1.4 mph 95% 0 in 178.00 W/m2
08:14 61.9 °F 60.5 °F 29.86 in NE 3.5 mph 0.1 mph 95% 0 in 230.00 W/m2
08:19 62.4 °F 60.9 °F 29.86 in NE 3.5 mph 0.8 mph 95% 0 in 353.00 W/m2
08:24 63 °F 61.5 °F 29.86 in NE 4.6 mph 0.5 mph 95% 0 in 362.00 W/m2
08:29 63.1 °F 61.6 °F 29.86 in ENE 3.5 mph 0.2 mph 95% 0 in 227.00 W/m2
08:34 63.5 °F 62 °F 29.86 in Calm     95% 0 in 330.00 W/m2
08:39 64.2 °F 62.7 °F 29.86 in ENE 3.5 mph 2.3 mph 95% 0 in 338.00 W/m2
08:44 64.7 °F 63.2 °F 29.86 in Calm     95% 0 in 341.00 W/m2
08:49 65.3 °F 63.8 °F 29.86 in ENE 3.5 mph   95% 0 in 360.00 W/m2
08:54 65.8 °F 64.3 °F 29.86 in Calm     95% 0 in 468.00 W/m2
08:59 66.3 °F 64.8 °F 29.86 in Calm     95% 0 in 338.00 W/m2
09:04 66.7 °F 65.2 °F 29.86 in ENE 4 mph 0.1 mph 95% 0 in 506.00 W/m2
09:09 67.5 °F 66 °F 29.86 in Calm     95% 0 in 526.00 W/m2
09:14 68.3 °F 66.5 °F 29.86 in Calm     94% 0 in 566.00 W/m2
09:19 69.2 °F 67.1 °F 29.86 in ENE 3.5 mph   93% 0 in 635.00 W/m2
09:24 70 °F 67.3 °F 29.86 in Calm   0.2 mph 91% 0 in 504.00 W/m2
09:29 70 °F 66.3 °F 29.86 in ENE 4.6 mph   88% 0 in 425.00 W/m2
09:34 70.4 °F 66.7 °F 29.86 in NE 1.2 mph   88% 0 in 446.00 W/m2
09:39 71 °F 67.3 °F 29.86 in NNE 3 mph 1.7 mph 88% 0 in 494.00 W/m2
09:44 71.4 °F 67 °F 29.86 in Calm   0.2 mph 86% 0 in 432.00 W/m2
09:49 71.8 °F 67.4 °F 29.86 in NE 3.5 mph   86% 0 in 617.00 W/m2
09:54 72.8 °F 68.4 °F 29.86 in Calm   0.9 mph 86% 0 in 598.00 W/m2
09:59 73.4 °F 67.6 °F 29.86 in NE 5.8 mph 1.5 mph 82% 0 in 684.00 W/m2
10:04 74 °F 68.5 °F 29.86 in ENE 5.8 mph 1.5 mph 83% 0 in 664.00 W/m2
10:09 74.6 °F 68.4 °F 29.86 in NNE 4 mph 1.6 mph 81% 0 in 696.00 W/m2
10:14 75 °F 68.8 °F 29.86 in NE 3.5 mph   81% 0 in 751.00 W/m2
10:19 75.2 °F 69 °F 29.86 in ENE 4.6 mph 0.7 mph 81% 0 in 775.00 W/m2
10:24 75.6 °F 67.9 °F 29.86 in NNE 4.6 mph   77% 0 in 788.00 W/m2
10:29 76.2 °F 69.6 °F 29.86 in NNE 4 mph 1.2 mph 80% 0 in 791.00 W/m2
10:34 76.7 °F 68.6 °F 29.86 in North 3.5 mph 1.9 mph 76% 0 in 814.00 W/m2
10:39 77.1 °F 68.9 °F 29.86 in NE 6.9 mph 4.1 mph 76% 0 in 840.00 W/m2
10:44 77.6 °F 69.8 °F 29.86 in NNE 3.5 mph 1.4 mph 77% 0 in 842.00 W/m2
10:49 78 °F 69.8 °F 29.85 in ENE 5.8 mph 3.8 mph 76% 0 in 838.00 W/m2
10:54 78.1 °F 69.1 °F 29.85 in East 8.1 mph 6 mph 74% 0 in 856.00 W/m2
10:59 78.1 °F 69.9 °F 29.86 in ENE 5.8 mph 1.1 mph 76% 0 in 840.00 W/m2
11:04 78.5 °F 70.3 °F 29.86 in ENE 3.5 mph 0.7 mph 76% 0 in 861.00 W/m2
11:09 78.7 °F 69.7 °F 29.85 in ENE 4.6 mph 2.6 mph 74% 0 in 874.00 W/m2
11:14 78.7 °F 69.3 °F 29.85 in ENE 4.6 mph 1.1 mph 73% 0 in 877.00 W/m2
11:19 79.2 °F 70.2 °F 29.86 in ENE 4 mph 3.6 mph 74% 0 in 889.00 W/m2
11:24 79.1 °F 70.1 °F 29.86 in ENE 3.5 mph 4 mph 74% 0 in 896.00 W/m2
11:29 79.5 °F 70.5 °F 29.86 in East 8.1 mph 2.7 mph 74% 0 in 893.00 W/m2
11:34 80 °F 70.6 °F 29.86 in SE 3.5 mph   73% 0 in 884.00 W/m2
11:39 80.2 °F 71.6 °F 29.86 in NE 4.6 mph 3.7 mph 75% 0 in 891.00 W/m2
11:44 80.5 °F 69.8 °F 29.86 in East 6 mph 1.7 mph 70% 0 in 907.00 W/m2
11:49 80.5 °F 70.2 °F 29.86 in East 6 mph 1.1 mph 71% 0 in 900.00 W/m2
11:54 80.8 °F 71.3 °F 29.86 in NE 3.5 mph 2.3 mph 73% 0 in 916.00 W/m2
11:59 81.2 °F 71.3 °F 29.86 in ENE 5 mph 5.4 mph 72% 0 in 916.00 W/m2
12:04 81.4 °F 70.2 °F 29.86 in ENE 9.2 mph 6.1 mph 69% 0 in 925.00 W/m2
12:09 81.6 °F 70 °F 29.86 in ESE 3.5 mph   68% 0 in 939.00 W/m2
12:14 81.9 °F 71.6 °F 29.85 in ENE 6.9 mph 2.5 mph 71% 0 in 905.00 W/m2
12:19 82.1 °F 70.5 °F 29.86 in ESE 9.2 mph 3.3 mph 68% 0 in 939.00 W/m2
12:24 82.3 °F 72 °F 29.86 in East 6 mph 1.1 mph 71% 0 in 918.00 W/m2
12:29 82.3 °F 70.7 °F 29.86 in ESE 4.6 mph 1.9 mph 68% 0 in 942.00 W/m2
12:34 82.4 °F 71.6 °F 29.86 in NE 3.5 mph 1.1 mph 70% 0 in 939.00 W/m2
12:39 82.6 °F 71 °F 29.85 in East 6 mph 3.2 mph 68% 0 in 889.00 W/m2
12:44 82.9 °F 72.1 °F 29.86 in NE 3.5 mph 2.8 mph 70% 0 in 949.00 W/m2
12:49 83.1 °F 71.4 °F 29.85 in NE 5.8 mph 1.2 mph 68% 0 in 916.00 W/m2
12:54 83.2 °F 71.5 °F 29.85 in NE 3.5 mph 2.4 mph 68% 0 in 939.00 W/m2
12:59 83.6 °F 72.3 °F 29.85 in North 9.2 mph 3.1 mph 69% 0 in 951.00 W/m2
13:04 83.9 °F 71.8 °F 29.85 in East 6 mph 2.4 mph 67% 0 in 912.00 W/m2
13:09 83.9 °F 70.9 °F 29.85 in East 8.1 mph 4.9 mph 65% 0 in 918.00 W/m2
13:14 83.6 °F 70.6 °F 29.85 in ENE 11.5 mph 7.4 mph 65% 0 in 928.00 W/m2
13:19 83.5 °F 70.5 °F 29.84 in Calm     65% 0 in 930.00 W/m2
13:24 83.7 °F 71.6 °F 29.84 in East 5.8 mph 3.3 mph 67% 0 in 898.00 W/m2
13:29 83.6 °F 68.7 °F 29.84 in ENE 2 mph 0.2 mph 61% 0 in 926.00 W/m2
13:34 83.9 °F 70.9 °F 29.84 in East 5 mph 2.3 mph 65% 0 in 912.00 W/m2
13:39 84.1 °F 71.1 °F 29.84 in East 8.1 mph 4.6 mph 65% 0 in 879.00 W/m2
13:44 84.3 °F 70.8 °F 29.84 in ENE 2.3 mph 1.4 mph 64% 0 in 933.00 W/m2
13:49 84.3 °F 71.2 °F 29.84 in NE 6.9 mph 0.6 mph 65% 0 in 925.00 W/m2
13:54 84.3 °F 71.7 °F 29.84 in East 9.2 mph 5.4 mph 66% 0 in 928.00 W/m2
13:59 84.2 °F 70.2 °F 29.84 in Calm     63% 0 in 930.00 W/m2
14:04 84.4 °F 71.8 °F 29.84 in East 8.1 mph 3.1 mph 66% 0 in 867.00 W/m2
14:09 84.3 °F 71.2 °F 29.84 in East 5.8 mph 2.5 mph 65% 0 in 812.00 W/m2
14:14 84.4 °F 70.4 °F 29.84 in ENE 4.6 mph 2.3 mph 63% 0 in 788.00 W/m2
14:19 84.2 °F 70.2 °F 29.84 in East 8 mph 5.5 mph 63% 0 in 802.00 W/m2
14:24 83.9 °F 70.4 °F 29.84 in North 5 mph 2.8 mph 64% 0 in 860.00 W/m2
14:29 84.3 °F 71.7 °F 29.84 in East 3.5 mph 1.2 mph 66% 0 in 946.00 W/m2
14:35 84.9 °F 71.4 °F 29.84 in East 8.1 mph 1.8 mph 64% 0 in 895.00 W/m2
14:39 85.4 °F 72.3 °F 29.83 in NNE 4.6 mph 1.4 mph 65% 0 in 918.00 W/m2
14:44 85.8 °F 71.7 °F 29.83 in Calm     63% 0 in 912.00 W/m2
14:49 85.9 °F 70.4 °F 29.83 in ENE 3.5 mph   60% 0 in 311.00 W/m2
14:54 85.6 °F 71.6 °F 29.83 in Calm   0.5 mph 63% 0 in 939.00 W/m2
14:59 85.9 °F 72.8 °F 29.83 in NE 8.1 mph 4.1 mph 65% 0 in 940.00 W/m2
15:04 85.7 °F 71.2 °F 29.83 in ESE 4.6 mph 1.8 mph 62% 0 in 875.00 W/m2
15:09 85.9 °F 71.8 °F 29.83 in East 3.5 mph 0.7 mph 63% 0 in 874.00 W/m2
15:14 85.9 °F 70.4 °F 29.83 in NE 8.1 mph 1.5 mph 60% 0 in 357.00 W/m2
15:19 85.1 °F 71.1 °F 29.83 in East 3.5 mph 4 mph 63% 0 in 751.00 W/m2
15:24 84.9 °F 71.4 °F 29.83 in Calm     64% 0 in 619.00 W/m2
15:29 84.7 °F 71.2 °F 29.82 in NNE 9.2 mph 6.2 mph 64% 0 in 682.00 W/m2
15:34 83.8 °F 70.3 °F 29.82 in NE 4.6 mph 2.4 mph 64% 0 in 520.00 W/m2
15:39 83.3 °F 70.3 °F 29.82 in ENE 10.4 mph 0.3 mph 65% 0 in 429.00 W/m2
15:44 83 °F 70.9 °F 29.82 in North 10.4 mph 7.3 mph 67% 0 in 671.00 W/m2
15:49 83.1 °F 71 °F 29.83 in North 11 mph 5.7 mph 67% 0 in 617.00 W/m2
15:54 82.7 °F 70.2 °F 29.82 in NNE 7 mph 5.5 mph 66% 0 in 417.00 W/m2
15:59 82.3 °F 70.7 °F 29.83 in North 9 mph 4.9 mph 68% 0 in 554.00 W/m2
16:04 82.1 °F 70.1 °F 29.82 in NNE 12.7 mph 7 mph 67% 0 in 406.00 W/m2
16:09 81.7 °F 69.7 °F 29.82 in NNE 8.1 mph 8.4 mph 67% 0 in 345.00 W/m2
16:14 81.1 °F 69.5 °F 29.82 in NE 11.5 mph 8.6 mph 68% 0 in 330.00 W/m2
16:19 80.8 °F 69.2 °F 29.82 in NE 11.5 mph 5.9 mph 68% 0 in 346.00 W/m2
16:24 80.7 °F 69.2 °F 29.82 in NNE 8.1 mph 6.4 mph 68% 0 in 295.00 W/m2
16:29 80.5 °F 69 °F 29.82 in NNE 10.4 mph 6.9 mph 68% 0 in 341.00 W/m2
16:34 80.8 °F 69.7 °F 29.82 in North 11.5 mph 7.4 mph 69% 0 in 536.00 W/m2
16:39 81.3 °F 69.7 °F 29.82 in NE 9.2 mph 6.1 mph 68% 0 in 571.00 W/m2
16:44 81.6 °F 69.1 °F 29.82 in NNE 9.2 mph 4.6 mph 66% 0 in 388.00 W/m2
16:49 81.4 °F 69.4 °F 29.82 in NNE 9.2 mph 6.5 mph 67% 0 in 304.00 W/m2
16:54 81 °F 69.4 °F 29.83 in NE 7 mph 6.4 mph 68% 0 in 274.00 W/m2
16:59 80.7 °F 68.7 °F 29.83 in NE 9.2 mph 4.8 mph 67% 0 in 387.00 W/m2
17:04 80.7 °F 69.6 °F 29.83 in NE 11.5 mph 5.8 mph 69% 0 in 527.00 W/m2
17:09 81.1 °F 70 °F 29.83 in NNE 11.5 mph 5.3 mph 69% 0 in 599.00 W/m2
17:14 81.4 °F 68.5 °F 29.83 in NNE 11.5 mph 10 mph 65% 0 in 545.00 W/m2
17:20 81.1 °F 68.7 °F 29.83 in NE 12.7 mph 8.8 mph 66% 0 in 425.00 W/m2
17:24 80.5 °F 68.1 °F 29.83 in NNE 11.5 mph 7.5 mph 66% 0 in 250.00 W/m2
17:29 79.3 °F 67 °F 29.83 in NE 9.2 mph 4.9 mph 66% 0 in 199.00 W/m2
17:34 78.7 °F 67.7 °F 29.83 in NNE 11.5 mph 6.5 mph 69% 0 in 255.00 W/m2
17:39 78.4 °F 67.4 °F 29.83 in NNE 11.5 mph 9.4 mph 69% 0 in 371.00 W/m2
17:44 78.2 °F 67.6 °F 29.83 in NNE 12.7 mph 7 mph 70% 0 in 362.00 W/m2
17:49 78.3 °F 68.1 °F 29.83 in NNE 9.2 mph 6.8 mph 71% 0 in 348.00 W/m2
17:54 78.1 °F 67.5 °F 29.83 in NE 12.7 mph 9.5 mph 70% 0 in 316.00 W/m2
17:59 77.9 °F 67.3 °F 29.83 in ENE 11.5 mph 6.8 mph 70% 0 in 287.00 W/m2
18:04 77.8 °F 67.6 °F 29.82 in NNE 9 mph 5.8 mph 71% 0 in 276.00 W/m2
18:09 77.5 °F 67.8 °F 29.82 in NNE 8.1 mph 4.8 mph 72% 0 in 183.00 W/m2
18:14 77.3 °F 67.6 °F 29.82 in NNE 11.5 mph 6.1 mph 72% 0 in 308.00 W/m2
18:19 77.3 °F 67.2 °F 29.83 in North 11.5 mph 6.7 mph 71% 0 in 278.00 W/m2
18:24 77.3 °F 66.7 °F 29.83 in NNE 10 mph 9.9 mph 70% 0 in 253.00 W/m2
18:29 77.1 °F 67.4 °F 29.83 in NNE 11.5 mph 5.6 mph 72% 0 in 287.00 W/m2
18:34 77.1 °F 67.4 °F 29.83 in NE 11.5 mph 8.7 mph 72% 0 in 267.00 W/m2
18:39 76.9 °F 67.6 °F 29.83 in NE 7 mph 7.4 mph 73% 0 in 257.00 W/m2
18:44 76.8 °F 66.7 °F 29.83 in NNE 9.2 mph 6.1 mph 71% 0 in 234.00 W/m2
18:49 76.5 °F 65.6 °F 29.83 in NNE 11.5 mph 7.6 mph 69% 0 in 216.00 W/m2
18:55 76.1 °F 65.6 °F 29.83 in NE 12.7 mph 7.2 mph 70% 0 in 144.00 W/m2
18:59 75.2 °F 64.7 °F 29.83 in NE 13.8 mph 8.1 mph 70% 0 in 107.00 W/m2
19:04 74.6 °F 65 °F 29.83 in NE 9.2 mph 6 mph 72% 0 in 97.00 W/m2
19:09 74.1 °F 64.5 °F 29.83 in NNE 11.5 mph 7.2 mph 72% 0 in 130.00 W/m2
19:14 73.8 °F 64.6 °F 29.83 in NNE 12.7 mph 7.9 mph 73% 0 in 88.00 W/m2
19:19 73.4 °F 64.6 °F 29.84 in NNE 11.5 mph 6.3 mph 74% 0 in 72.00 W/m2
19:24 72.8 °F 64.4 °F 29.84 in NE 11.5 mph 5 mph 75% 0 in 56.00 W/m2
19:29 72.2 °F 63.8 °F 29.84 in NNE 10.4 mph 5.9 mph 75% 0 in 42.00 W/m2
19:34 71.8 °F 64.2 °F 29.84 in NE 8.1 mph 4.3 mph 77% 0 in 39.00 W/m2
19:39 71.5 °F 64.3 °F 29.84 in NE 5.8 mph 3 mph 78% 0 in 30.00 W/m2
19:44 71.1 °F 64.3 °F 29.85 in NE 2.3 mph 2.3 mph 79% 0 in 23.00 W/m2
19:49 70.7 °F 64.2 °F 29.85 in NNE 6.9 mph 3.1 mph 80% 0 in 19.00 W/m2
19:54 70.3 °F 63.8 °F 29.85 in NE 7 mph 4.7 mph 80% 0 in 14.00 W/m2
19:59 69.8 °F 63.3 °F 29.85 in NNE 3.5 mph 1.1 mph 80% 0 in 14.00 W/m2
20:04 69.5 °F 63.4 °F 29.85 in NE 9 mph 4.7 mph 81% 0 in 11.00 W/m2
20:09 69.2 °F 63.5 °F 29.84 in NNE 9.2 mph 4 mph 82% 0 in 7.00 W/m2
20:14 68.8 °F 63.4 °F 29.84 in NE 8.1 mph 3.9 mph 83% 0 in 5.00 W/m2
20:19 68.4 °F 63.4 °F 29.84 in NE 9.2 mph 4.7 mph 84% 0 in 0.00 W/m2
20:24 68 °F 63.3 °F 29.84 in NNE 8.1 mph 5.1 mph 85% 0 in 0.00 W/m2
20:29 67.7 °F 63.4 °F 29.85 in NE 6.9 mph 4.7 mph 86% 0 in 0.00 W/m2
20:34 67.4 °F 63.1 °F 29.85 in ENE 7 mph 3.5 mph 86% 0 in 0.00 W/m2
20:39 67 °F 63 °F 29.85 in NNE 5.8 mph 3.6 mph 87% 0 in 0.00 W/m2
20:44 66.8 °F 62.8 °F 29.85 in NE 4.6 mph 3.8 mph 87% 0 in 0.00 W/m2
20:49 66.5 °F 62.8 °F 29.85 in NNE 8.1 mph 2.4 mph 88% 0 in 0.00 W/m2
20:54 66.3 °F 62.6 °F 29.85 in NNE 6.9 mph 3.6 mph 88% 0 in 0.00 W/m2
20:59 66.1 °F 62.8 °F 29.85 in NNE 7 mph 2.1 mph 89% 0 in 0.00 W/m2
21:04 65.9 °F 62.6 °F 29.85 in NNE 6 mph 2.7 mph 89% 0 in 0.00 W/m2
21:09 65.7 °F 62.4 °F 29.86 in NE 6.9 mph 3.9 mph 89% 0 in 0.00 W/m2
21:14 65.4 °F 62.1 °F 29.86 in NE 3.5 mph 2.9 mph 89% 0 in 0.00 W/m2
21:19 65.2 °F 61.9 °F 29.86 in NNE 3.5 mph 2.2 mph 89% 0 in 0.00 W/m2
21:24 65 °F 62 °F 29.86 in NNE 3.5 mph 1.1 mph 90% 0 in 0.00 W/m2
21:29 64.8 °F 61.8 °F 29.86 in ENE 5 mph 2.7 mph 90% 0 in 0.00 W/m2
21:34 64.6 °F 61.6 °F 29.86 in NE 8.1 mph 1.8 mph 90% 0 in 0.00 W/m2
21:39 64.5 °F 61.8 °F 29.86 in North 5 mph 3.1 mph 91% 0 in 0.00 W/m2
21:44 64.4 °F 61.7 °F 29.87 in NE 2.3 mph 1.7 mph 91% 0 in 0.00 W/m2
21:49 64.3 °F 61.6 °F 29.87 in NE 1 mph 1.5 mph 91% 0 in 0.00 W/m2
21:55 64.2 °F 61.8 °F 29.87 in NE 3.5 mph 1.5 mph 92% 0 in 0.00 W/m2
21:59 64.1 °F 61.7 °F 29.87 in NE 4.6 mph 2.6 mph 92% 0 in 0.00 W/m2
22:04 64.2 °F 61.8 °F 29.88 in NE 8.1 mph 3.5 mph 92% 0 in 0.00 W/m2
22:09 64.1 °F 61.7 °F 29.88 in NE 6.9 mph 4.1 mph 92% 0 in 0.00 W/m2
22:14 64 °F 61.6 °F 29.88 in NE 3.5 mph 1.9 mph 92% 0 in 0.00 W/m2
22:19 63.9 °F 61.5 °F 29.88 in NE 3.5 mph 3.2 mph 92% 0 in 0.00 W/m2
22:24 63.7 °F 61.3 °F 29.88 in NE 6.9 mph 3.9 mph 92% 0 in 0.00 W/m2
22:29 63.5 °F 61.1 °F 29.88 in NNE 7 mph 2.8 mph 92% 0 in 0.00 W/m2
22:34 63.2 °F 60.5 °F 29.88 in NNE 6.9 mph 3.4 mph 91% 0 in 0.00 W/m2
22:39 63 °F 60.3 °F 29.88 in ENE 6.9 mph 2.8 mph 91% 0 in 0.00 W/m2
22:44 62.9 °F 60.5 °F 29.88 in North 4.6 mph 2.5 mph 92% 0 in 0.00 W/m2
22:49 62.8 °F 60.1 °F 29.89 in ENE 8.1 mph 4.1 mph 91% 0 in 0.00 W/m2
22:54 62.5 °F 59.8 °F 29.89 in ENE 8.1 mph 3.6 mph 91% 0 in 0.00 W/m2
22:59 62.3 °F 59.6 °F 29.89 in North 6.9 mph 2.5 mph 91% 0 in 0.00 W/m2
23:04 62.1 °F 59.7 °F 29.89 in NNE 4.6 mph 3.7 mph 92% 0 in 0.00 W/m2
23:09 61.7 °F 59 °F 29.89 in North 8.1 mph 4.3 mph 91% 0 in 0.00 W/m2
23:14 61.3 °F 59 °F 29.89 in North 6.9 mph 6.3 mph 92% 0 in 0.00 W/m2
23:19 61.1 °F 58.8 °F 29.88 in NE 10.4 mph 5.4 mph 92% 0 in 0.00 W/m2
23:24 60.8 °F 58.5 °F 29.88 in NNE 5.8 mph 3 mph 92% 0 in 0.00 W/m2
23:29 60.6 °F 58.6 °F 29.88 in NNE 9.2 mph 5.1 mph 93% 0 in 0.00 W/m2
23:34 60.4 °F 58.4 °F 29.88 in NNE 10.4 mph 7.2 mph 93% 0 in 0.00 W/m2
23:39 60.3 °F 58.3 °F 29.88 in NE 5.8 mph 2.5 mph 93% 0 in 0.00 W/m2
23:44 60.2 °F 58.2 °F 29.88 in NNE 4.6 mph 2.9 mph 93% 0 in 0.00 W/m2
23:49 60.1 °F 58.1 °F 29.88 in North 6.9 mph 4.9 mph 93% 0 in 0.00 W/m2
23:54 60 °F 58.3 °F 29.88 in NE 8.1 mph 3.6 mph 94% 0 in 0.00 W/m2
Bourbonnais, Illinois, USA
Compliments of Weather Underground - 4 mb